Hovedside
METAR-TAF:

METAR-TAF

Lufthavner :

St. Petersburg, Russland

Pulkovo internasjonale lufthavn

breddegrad: 59-58N, lengdegrad: 030-18E, høyde over havet: 4 m

Gjeldene værobservasjon

Denne rapporten ble laget for 26 minutter siden, klokken 18:30 UTC
Vind 10 kt fra Øst-sørøst
Temperatur 10°C
Luftfuktighet 87%
Trykk 1030 hPa
Sikt 10 km eller mer
ingen skyer under 1500 m og ingen bygeskyer

METAR: ULLI 221830Z 12005MPS CAVOK 10/08 Q1030 R10L/090060 NOSIG

Tid: 21:56 (18:56 UTC)

Varsel

Denne rapporten ble laget for 2 timer og 0 minutter siden, klokken 16:56 UTC
Varsel gyldig fra 22. klokken 18 UTC til 23. klokken 18 UTC
Vind 6 kt fra Øst med vindkast opp mot 16 kt
Sikt 10 km eller mer
Spredte skyer i en høyde av 2000 ft
Midlertidig
fra 22. klokken 23 UTC til 23. klokken 06 UTC
Vind 2 kt fra skiftende retning
Sikt: 3100 m
Spredte skyer i en høyde av 1100 ft
dis

TAF: ULLI 221656Z 2218/2318 10003G08MPS 9999 SCT020 TEMPO 2223/2306 VRB01MPS 3100 BR SCT011

Værobservasjoner og værvarsel for over 4000 flyplasser (METAR- og TAF-rapporter).

Tilgjengelige stasjoner er representert av de røde og gule prikkene på kartet.

Hold musepekeren over prikken for å se navnet på stasjonen.

Klikk så for å se værobservasjoner og -varsler.

For å forandre kartet kan du klikke på den grønne knappen med svart kryss for å zoome inn, på den grønne knappen med strek for å zoome ut, eller på de grønne pilene for å se tilstøtende kart.


METAR-TAF: